createdAt,value
2023-04-02T00:01:02.486Z,6.01
2023-04-02T00:03:43.989Z,5.99
2023-04-02T00:06:45.049Z,5.97
2023-04-02T00:09:15.664Z,5.97
2023-04-02T00:11:48.728Z,5.96
2023-04-02T00:14:24.243Z,5.91
2023-04-02T00:16:53.650Z,5.83
2023-04-02T00:19:35.389Z,5.80
2023-04-02T00:22:06.554Z,5.79
2023-04-02T00:24:34.066Z,5.81
2023-04-02T00:27:01.428Z,5.82
2023-04-02T00:29:28.599Z,5.84
2023-04-02T00:31:59.940Z,5.85
2023-04-02T00:34:34.091Z,5.83
2023-04-02T00:37:02.024Z,5.82
2023-04-02T00:39:33.238Z,5.81
2023-04-02T00:42:06.702Z,5.77
2023-04-02T00:44:42.878Z,5.75
2023-04-02T00:47:20.386Z,5.73
2023-04-02T00:49:53.935Z,5.72
2023-04-02T00:52:26.229Z,5.70
2023-04-02T00:55:03.704Z,5.70
2023-04-02T00:57:33.582Z,5.71
2023-04-02T01:00:19.737Z,5.70
2023-04-02T01:03:13.229Z,5.69
2023-04-02T01:05:42.660Z,5.64
2023-04-02T01:08:29.974Z,5.61
2023-04-02T01:11:09.088Z,5.60
2023-04-02T01:13:41.959Z,5.60
2023-04-02T01:16:18.145Z,5.60
2023-04-02T01:18:58.358Z,5.62
2023-04-02T01:21:42.659Z,5.59
2023-04-02T01:24:13.200Z,5.55
2023-04-02T01:27:02.335Z,5.53
2023-04-02T01:29:45.530Z,5.51
2023-04-02T01:32:15.708Z,5.50
2023-04-02T01:34:44.906Z,5.48
2023-04-02T01:37:23.096Z,5.44
2023-04-02T01:39:59.944Z,5.43
2023-04-02T01:42:39.058Z,5.44
2023-04-02T01:45:15.797Z,5.46
2023-04-02T01:47:44.081Z,5.47
2023-04-02T01:50:20.431Z,5.45
2023-04-02T01:52:55.658Z,5.42
2023-04-02T01:55:39.035Z,5.38
2023-04-02T01:58:06.815Z,5.34
2023-04-02T02:00:37.554Z,5.30
2023-04-02T02:03:06.366Z,5.25
2023-04-02T02:05:35.069Z,5.22
2023-04-02T02:08:02.910Z,5.20
2023-04-02T02:10:36.308Z,5.18
2023-04-02T02:13:03.859Z,5.20
2023-04-02T02:15:34.088Z,5.22
2023-04-02T02:18:05.566Z,5.25
2023-04-02T02:20:34.558Z,5.24
2023-04-02T02:23:04.312Z,5.25
2023-04-02T02:25:34.745Z,5.23
2023-04-02T02:28:02.106Z,5.21
2023-04-02T02:30:35.249Z,5.19
2023-04-02T02:33:14.542Z,5.16
2023-04-02T02:35:55.427Z,5.14
2023-04-02T02:38:39.732Z,5.16
2023-04-02T02:41:28.486Z,5.18
2023-04-02T02:43:59.328Z,5.20
2023-04-02T02:46:29.011Z,5.20
2023-04-02T02:48:58.819Z,5.19
2023-04-02T02:51:40.920Z,5.16
2023-04-02T02:54:09.738Z,5.18
2023-04-02T02:56:46.353Z,5.20
2023-04-02T02:59:16.116Z,5.21
2023-04-02T03:01:44.790Z,5.20
2023-04-02T03:04:12.358Z,5.18
2023-04-02T03:06:41.001Z,5.19
2023-04-02T03:09:25.867Z,5.19
2023-04-02T03:12:06.867Z,5.20
2023-04-02T03:14:42.748Z,5.20
2023-04-02T03:17:24.295Z,5.20
2023-04-02T03:20:06.591Z,5.20
2023-04-02T03:22:53.763Z,5.24
2023-04-02T03:25:41.886Z,5.23
2023-04-02T03:28:19.865Z,5.19
2023-04-02T03:30:58.429Z,5.17
2023-04-02T03:33:34.142Z,5.16
2023-04-02T03:36:13.258Z,5.16
2023-04-02T03:39:03.528Z,5.17
2023-04-02T03:41:43.019Z,5.22
2023-04-02T03:44:22.773Z,5.25
2023-04-02T03:46:57.723Z,5.25
2023-04-02T03:49:31.732Z,5.25
2023-04-02T03:52:29.488Z,5.25
2023-04-02T03:55:02.808Z,5.24
2023-04-02T03:57:43.007Z,5.22
2023-04-02T04:00:14.537Z,5.21
2023-04-02T04:02:59.361Z,5.20
2023-04-02T04:05:31.366Z,5.19
2023-04-02T04:08:14.359Z,5.19
2023-04-02T04:10:43.591Z,5.20
2023-04-02T04:13:18.133Z,5.20
2023-04-02T04:15:55.087Z,5.18
2023-04-02T04:18:29.890Z,5.15
2023-04-02T04:21:02.216Z,5.14
2023-04-02T04:23:38.099Z,5.13
2023-04-02T04:26:24.853Z,5.14
2023-04-02T04:29:05.639Z,5.12
2023-04-02T04:31:49.855Z,5.09
2023-04-02T04:34:32.466Z,5.10
2023-04-02T04:37:07.822Z,5.12
2023-04-02T04:39:47.759Z,5.15
2023-04-02T04:42:21.734Z,5.17
2023-04-02T04:45:00.190Z,5.19
2023-04-02T04:47:40.243Z,5.18
2023-04-02T04:50:26.449Z,5.17
2023-04-02T04:52:53.883Z,5.13
2023-04-02T04:55:38.686Z,5.09
2023-04-02T04:58:19.509Z,5.05
2023-04-02T05:01:10.662Z,5.01
2023-04-02T05:03:46.644Z,4.96
2023-04-02T05:06:37.968Z,4.96
2023-04-02T05:09:17.789Z,4.99
2023-04-02T05:11:52.030Z,5.01
2023-04-02T05:14:31.595Z,5.02
2023-04-02T05:17:13.705Z,5.00
2023-04-02T05:19:51.787Z,4.98
2023-04-02T05:22:29.414Z,4.95
2023-04-02T05:25:23.751Z,4.91
2023-04-02T05:28:13.417Z,4.87
2023-04-02T05:30:49.762Z,4.83
2023-04-02T05:33:22.502Z,4.77
2023-04-02T05:36:05.929Z,4.74
2023-04-02T05:38:39.300Z,4.72
2023-04-02T05:41:48.081Z,4.72
2023-04-02T05:44:40.962Z,4.75
2023-04-02T05:47:15.139Z,4.75
2023-04-02T05:49:44.528Z,4.72
2023-04-02T05:52:21.773Z,4.71
2023-04-02T05:55:13.802Z,4.71
2023-04-02T05:58:13.559Z,4.70
2023-04-02T06:00:40.858Z,4.69
2023-04-02T06:03:24.305Z,4.68
2023-04-02T06:05:56.981Z,4.66
2023-04-02T06:08:35.622Z,4.68
2023-04-02T06:11:24.073Z,4.70
2023-04-02T06:13:52.118Z,4.68
2023-04-02T06:16:25.425Z,4.69
2023-04-02T06:18:53.198Z,4.69
2023-04-02T06:21:22.353Z,4.70
2023-04-02T06:24:05.901Z,4.70
2023-04-02T06:26:52.118Z,4.68
2023-04-02T06:29:39.702Z,4.68
2023-04-02T06:32:12.419Z,4.70
2023-04-02T06:34:42.812Z,4.69
2023-04-02T06:37:30.173Z,4.69
2023-04-02T06:40:27.934Z,4.70
2023-04-02T06:42:59.964Z,4.75
2023-04-02T06:46:06.943Z,4.72
2023-04-02T06:48:50.675Z,4.70
2023-04-02T06:51:20.801Z,4.69
2023-04-02T06:53:49.619Z,4.69
2023-04-02T06:56:41.780Z,4.69
2023-04-02T06:59:10.420Z,4.67
2023-04-02T07:01:51.474Z,4.67
2023-04-02T07:04:20.585Z,4.67
2023-04-02T07:06:51.148Z,4.67
2023-04-02T07:09:19.770Z,4.67
2023-04-02T07:11:50.995Z,4.70
2023-04-02T07:14:19.065Z,4.72
2023-04-02T07:16:46.470Z,4.76
2023-04-02T07:19:20.211Z,4.76
2023-04-02T07:21:48.999Z,4.75
2023-04-02T07:24:16.572Z,4.70
2023-04-02T07:26:43.918Z,4.71
2023-04-02T07:29:16.106Z,4.73
2023-04-02T07:31:44.153Z,4.76
2023-04-02T07:34:11.244Z,4.74
2023-04-02T07:36:38.499Z,4.73
2023-04-02T07:39:05.692Z,4.73
2023-04-02T07:41:32.914Z,4.71
2023-04-02T07:44:00.156Z,4.70
2023-04-02T07:46:27.350Z,4.69
2023-04-02T07:48:54.608Z,4.69
2023-04-02T07:51:24.852Z,4.69
2023-04-02T07:53:56.357Z,4.72
2023-04-02T07:56:25.170Z,4.73
2023-04-02T07:58:52.660Z,4.74
2023-04-02T08:01:26.153Z,4.76
2023-04-02T08:03:57.706Z,4.77
2023-04-02T08:06:25.828Z,4.80
2023-04-02T08:08:53.378Z,4.81
2023-04-02T08:11:20.576Z,4.81
2023-04-02T08:13:47.995Z,4.81
2023-04-02T08:16:15.518Z,4.81
2023-04-02T08:18:42.690Z,4.82
2023-04-02T08:21:11.171Z,4.81
2023-04-02T08:23:38.760Z,4.79
2023-04-02T08:26:06.730Z,4.78
2023-04-02T08:28:34.365Z,4.77
2023-04-02T08:31:02.264Z,4.76
2023-04-02T08:33:29.564Z,4.77
2023-04-02T08:35:56.793Z,4.79
2023-04-02T08:38:24.066Z,4.78
2023-04-02T08:40:54.481Z,4.74
2023-04-02T08:43:37.620Z,4.73
2023-04-02T08:46:12.203Z,4.72
2023-04-02T08:48:44.129Z,4.71
2023-04-02T08:51:29.905Z,4.69
2023-04-02T08:54:11.787Z,4.71
2023-04-02T08:56:44.550Z,4.74
2023-04-02T08:59:33.745Z,4.78
2023-04-02T09:02:11.923Z,4.81
2023-04-02T09:04:41.130Z,4.84
2023-04-02T09:07:14.386Z,4.83
2023-04-02T09:09:41.745Z,4.81
2023-04-02T09:12:21.166Z,4.77
2023-04-02T09:14:54.610Z,4.74
2023-04-02T09:17:25.021Z,4.73
2023-04-02T09:20:17.352Z,4.73
2023-04-02T09:22:47.271Z,4.74
2023-04-02T09:25:22.648Z,4.76
2023-04-02T09:27:53.443Z,4.78
2023-04-02T09:30:38.517Z,4.82
2023-04-02T09:33:10.070Z,4.84
2023-04-02T09:35:54.565Z,4.87
2023-04-02T09:38:28.245Z,4.86
2023-04-02T09:40:55.724Z,4.84
2023-04-02T09:43:29.069Z,4.81
2023-04-02T09:46:04.214Z,4.77
2023-04-02T09:48:41.522Z,4.77
2023-04-02T09:51:20.423Z,4.81
2023-04-02T09:53:49.980Z,4.85
2023-04-02T09:56:25.775Z,4.87
2023-04-02T09:59:16.666Z,4.87
2023-04-02T10:01:56.060Z,4.86
2023-04-02T10:04:48.083Z,4.84
2023-04-02T10:07:38.320Z,4.83
2023-04-02T10:10:19.752Z,4.81
2023-04-02T10:12:54.098Z,4.82
2023-04-02T10:15:27.551Z,4.84
2023-04-02T10:18:07.009Z,4.87
2023-04-02T10:20:48.577Z,4.88
2023-04-02T10:23:19.493Z,4.90
2023-04-02T10:26:14.825Z,4.92
2023-04-02T10:29:07.232Z,4.89
2023-04-02T10:31:44.364Z,4.85
2023-04-02T10:34:23.642Z,4.82
2023-04-02T10:36:55.405Z,4.82
2023-04-02T10:39:26.316Z,4.83
2023-04-02T10:41:57.866Z,4.86
2023-04-02T10:44:36.897Z,4.87
2023-04-02T10:47:13.886Z,4.89
2023-04-02T10:49:56.182Z,4.92
2023-04-02T10:52:23.354Z,4.95
2023-04-02T10:54:52.810Z,4.95
2023-04-02T10:57:32.060Z,4.97
2023-04-02T11:00:08.239Z,4.99
2023-04-02T11:02:54.312Z,5.00
2023-04-02T11:05:50.995Z,5.01
2023-04-02T11:08:26.518Z,5.01
2023-04-02T11:11:05.597Z,5.04
2023-04-02T11:13:50.902Z,5.05
2023-04-02T11:16:18.606Z,5.04
2023-04-02T11:19:09.009Z,5.02
2023-04-02T11:21:55.462Z,5.00
2023-04-02T11:24:50.111Z,5.03
2023-04-02T11:27:20.874Z,5.08
2023-04-02T11:30:08.184Z,5.14
2023-04-02T11:32:56.400Z,5.22
2023-04-02T11:35:32.862Z,5.26
2023-04-02T11:38:04.346Z,5.28
2023-04-02T11:40:55.996Z,5.29
2023-04-02T11:43:36.092Z,5.31
2023-04-02T11:46:25.118Z,5.33
2023-04-02T11:48:54.839Z,5.33
2023-04-02T11:51:24.794Z,5.33
2023-04-02T11:53:54.082Z,5.35
2023-04-02T11:56:28.548Z,5.39
2023-04-02T11:59:13.907Z,5.43
2023-04-02T12:02:05.898Z,5.47
2023-04-02T12:04:45.879Z,5.53
2023-04-02T12:07:52.273Z,5.55
2023-04-02T12:10:22.671Z,5.61
2023-04-02T12:12:50.908Z,5.65
2023-04-02T12:15:44.923Z,5.66
2023-04-02T12:18:25.300Z,5.71
2023-04-02T12:20:56.102Z,5.73
2023-04-02T12:23:31.559Z,5.75
2023-04-02T12:26:24.329Z,5.75
2023-04-02T12:28:51.535Z,5.74
2023-04-02T12:31:22.635Z,5.74
2023-04-02T12:33:52.815Z,5.71
2023-04-02T12:36:22.824Z,5.67
2023-04-02T12:38:56.094Z,5.68
2023-04-02T12:41:32.939Z,5.70
2023-04-02T12:44:11.799Z,5.73
2023-04-02T12:46:40.145Z,5.74
2023-04-02T12:49:20.170Z,5.73
2023-04-02T12:51:48.499Z,5.73
2023-04-02T12:54:17.680Z,5.74
2023-04-02T12:56:44.917Z,5.74
2023-04-02T12:59:36.139Z,5.73
2023-04-02T13:02:17.932Z,5.77
2023-04-02T13:04:53.539Z,5.85
2023-04-02T13:07:23.808Z,5.93
2023-04-02T13:09:56.119Z,5.97
2023-04-02T13:12:41.867Z,6.00
2023-04-02T13:15:32.357Z,6.01
2023-04-02T13:18:19.428Z,6.03
2023-04-02T13:21:06.966Z,6.03
2023-04-02T13:23:37.497Z,6.04
2023-04-02T13:26:18.904Z,6.06
2023-04-02T13:29:12.421Z,6.09
2023-04-02T13:31:39.678Z,6.11
2023-04-02T13:34:07.257Z,6.11
2023-04-02T13:36:34.889Z,6.08
2023-04-02T13:39:02.020Z,6.06
2023-04-02T13:41:32.259Z,6.04
2023-04-02T13:44:02.694Z,6.03
2023-04-02T13:46:32.662Z,6.03
2023-04-02T13:49:00.173Z,6.02
2023-04-02T13:51:39.616Z,6.04
2023-04-02T13:54:14.510Z,6.04
2023-04-02T13:56:41.948Z,6.05
2023-04-02T13:59:09.047Z,6.06
2023-04-02T14:01:37.570Z,6.08
2023-04-02T14:04:06.346Z,6.09
2023-04-02T14:06:55.315Z,6.11
2023-04-02T14:09:45.118Z,6.13
2023-04-02T14:12:53.071Z,6.13
2023-04-02T14:15:27.637Z,6.15
2023-04-02T14:18:03.681Z,6.14
2023-04-02T14:20:36.870Z,6.11
2023-04-02T14:23:15.774Z,6.09
2023-04-02T14:26:07.551Z,6.07
2023-04-02T14:29:01.659Z,6.07
2023-04-02T14:31:46.969Z,6.08
2023-04-02T14:34:35.505Z,6.08
2023-04-02T14:37:20.508Z,6.10
2023-04-02T14:39:56.430Z,6.12
2023-04-02T14:42:57.431Z,6.15
2023-04-02T14:45:37.229Z,6.17
2023-04-02T14:48:30.315Z,6.18
2023-04-02T14:51:07.541Z,6.18
2023-04-02T14:53:47.423Z,6.20
2023-04-02T14:56:16.264Z,6.21
2023-04-02T14:58:52.936Z,6.20
2023-04-02T15:01:35.500Z,6.19
2023-04-02T15:04:16.087Z,6.18
2023-04-02T15:06:46.155Z,6.20
2023-04-02T15:09:19.917Z,6.23
2023-04-02T15:12:07.487Z,6.27
2023-04-02T15:14:44.461Z,6.29
2023-04-02T15:17:12.502Z,6.30
2023-04-02T15:19:39.875Z,6.31
2023-04-02T15:22:16.525Z,6.31
2023-04-02T15:24:52.735Z,6.29
2023-04-02T15:27:26.199Z,6.27
2023-04-02T15:30:13.311Z,6.26
2023-04-02T15:32:43.290Z,6.25
2023-04-02T15:35:31.628Z,6.24
2023-04-02T15:38:07.808Z,6.22
2023-04-02T15:40:59.920Z,6.21
2023-04-02T15:43:52.079Z,6.20
2023-04-02T15:46:25.028Z,6.16
2023-04-02T15:49:20.165Z,6.13
2023-04-02T15:52:15.097Z,6.10
2023-04-02T15:55:01.370Z,6.06
2023-04-02T15:57:54.733Z,6.01
2023-04-02T16:00:33.618Z,5.98
2023-04-02T16:03:34.766Z,5.97
2023-04-02T16:06:17.341Z,5.97
2023-04-02T16:08:57.281Z,5.96
2023-04-02T16:11:26.296Z,5.96
2023-04-02T16:14:26.323Z,5.96
2023-04-02T16:16:59.079Z,5.95
2023-04-02T16:19:34.532Z,5.93
2023-04-02T16:22:24.531Z,5.94
2023-04-02T16:25:02.012Z,5.94
2023-04-02T16:27:43.177Z,5.93
2023-04-02T16:30:12.994Z,5.92
2023-04-02T16:32:49.157Z,5.93
2023-04-02T16:35:47.729Z,5.93
2023-04-02T16:38:25.016Z,5.95
2023-04-02T16:41:09.404Z,5.97
2023-04-02T16:43:48.642Z,6.00
2023-04-02T16:46:31.693Z,6.01
2023-04-02T16:49:21.178Z,5.99
2023-04-02T16:52:14.224Z,5.97
2023-04-02T16:55:05.773Z,5.94
2023-04-02T16:57:57.397Z,5.90
2023-04-02T17:00:39.808Z,5.87
2023-04-02T17:03:28.692Z,5.83
2023-04-02T17:06:06.879Z,5.77
2023-04-02T17:08:44.603Z,5.71
2023-04-02T17:11:24.831Z,5.66
2023-04-02T17:14:13.482Z,5.62
2023-04-02T17:16:45.939Z,5.61
2023-04-02T17:19:16.145Z,5.60
2023-04-02T17:21:49.395Z,5.59
2023-04-02T17:24:27.349Z,5.58
2023-04-02T17:27:03.896Z,5.56
2023-04-02T17:29:38.297Z,5.55
2023-04-02T17:32:17.041Z,5.54
2023-04-02T17:34:44.384Z,5.51
2023-04-02T17:37:31.285Z,5.48
2023-04-02T17:40:23.824Z,5.45
2023-04-02T17:43:04.170Z,5.42
2023-04-02T17:45:48.110Z,5.39
2023-04-02T17:48:19.561Z,5.34
2023-04-02T17:50:49.364Z,5.30
2023-04-02T17:53:22.908Z,5.27
2023-04-02T17:56:05.285Z,5.24
2023-04-02T17:58:52.331Z,5.19
2023-04-02T18:01:49.702Z,5.16
2023-04-02T18:04:31.506Z,5.13
2023-04-02T18:07:20.345Z,5.08
2023-04-02T18:10:26.481Z,5.05
2023-04-02T18:12:58.418Z,5.02
2023-04-02T18:15:58.617Z,4.99
2023-04-02T18:18:58.585Z,4.95
2023-04-02T18:21:47.320Z,4.91
2023-04-02T18:24:33.005Z,4.88
2023-04-02T18:27:27.255Z,4.84
2023-04-02T18:30:18.734Z,4.80
2023-04-02T18:32:54.799Z,4.77
2023-04-02T18:35:35.592Z,4.75
2023-04-02T18:38:02.839Z,4.70
2023-04-02T18:40:54.572Z,4.66
2023-04-02T18:43:59.647Z,4.62
2023-04-02T18:46:40.027Z,4.56
2023-04-02T18:49:28.807Z,4.51
2023-04-02T18:52:00.450Z,4.46
2023-04-02T18:54:30.629Z,4.42
2023-04-02T18:56:58.185Z,4.39
2023-04-02T18:59:49.739Z,4.36
2023-04-02T19:02:40.634Z,4.30
2023-04-02T19:05:29.431Z,4.24
2023-04-02T19:08:04.489Z,4.20
2023-04-02T19:10:34.455Z,4.18
2023-04-02T19:13:01.736Z,4.16
2023-04-02T19:15:38.635Z,4.15
2023-04-02T19:18:14.906Z,4.13
2023-04-02T19:20:50.463Z,4.08
2023-04-02T19:23:43.109Z,4.06
2023-04-02T19:26:15.575Z,4.06
2023-04-02T19:28:57.575Z,4.06
2023-04-02T19:31:49.597Z,4.05
2023-04-02T19:34:24.219Z,4.04
2023-04-02T19:37:01.139Z,4.01
2023-04-02T19:39:38.712Z,3.97
2023-04-02T19:42:17.864Z,3.93
2023-04-02T19:44:48.676Z,3.90
2023-04-02T19:47:18.702Z,3.87
2023-04-02T19:49:46.132Z,3.84
2023-04-02T19:52:13.529Z,3.82
2023-04-02T19:54:40.738Z,3.79
2023-04-02T19:57:08.069Z,3.77
2023-04-02T19:59:35.703Z,3.75
2023-04-02T20:02:06.691Z,3.75
2023-04-02T20:04:34.250Z,3.76
2023-04-02T20:07:01.533Z,3.77
2023-04-02T20:09:29.943Z,3.81
2023-04-02T20:11:57.090Z,3.83
2023-04-02T20:14:24.250Z,3.83
2023-04-02T20:16:51.494Z,3.83
2023-04-02T20:19:18.734Z,3.83
2023-04-02T20:21:46.059Z,3.81
2023-04-02T20:24:13.280Z,3.80
2023-04-02T20:26:40.565Z,3.75
2023-04-02T20:29:07.780Z,3.71
2023-04-02T20:31:35.524Z,3.69
2023-04-02T20:34:05.494Z,3.65
2023-04-02T20:36:32.950Z,3.63
2023-04-02T20:39:00.272Z,3.59
2023-04-02T20:41:27.625Z,3.54
2023-04-02T20:43:54.925Z,3.51
2023-04-02T20:46:22.522Z,3.46
2023-04-02T20:48:49.858Z,3.44
2023-04-02T20:51:17.414Z,3.43
2023-04-02T20:53:44.625Z,3.41
2023-04-02T20:56:14.583Z,3.38
2023-04-02T20:58:42.590Z,3.36
2023-04-02T21:01:22.218Z,3.33
2023-04-02T21:03:53.998Z,3.31
2023-04-02T21:06:23.310Z,3.29
2023-04-02T21:08:51.064Z,3.28
2023-04-02T21:11:19.667Z,3.23
2023-04-02T21:13:46.921Z,3.19
2023-04-02T21:16:28.830Z,3.17
2023-04-02T21:18:58.618Z,3.16
2023-04-02T21:21:26.589Z,3.20
2023-04-02T21:23:56.771Z,3.19
2023-04-02T21:26:24.174Z,3.19
2023-04-02T21:28:51.296Z,3.21
2023-04-02T21:31:22.915Z,3.23
2023-04-02T21:33:55.762Z,3.23
2023-04-02T21:36:25.724Z,3.21
2023-04-02T21:38:56.166Z,3.19
2023-04-02T21:41:29.580Z,3.19
2023-04-02T21:43:58.870Z,3.18
2023-04-02T21:46:28.489Z,3.15
2023-04-02T21:48:57.803Z,3.11
2023-04-02T21:51:27.668Z,3.09
2023-04-02T21:53:55.535Z,3.07
2023-04-02T21:56:25.020Z,3.04
2023-04-02T21:58:52.786Z,3.02
2023-04-02T22:01:27.392Z,3.00
2023-04-02T22:04:00.875Z,2.99
2023-04-02T22:06:30.619Z,2.98
2023-04-02T22:09:03.007Z,2.97
2023-04-02T22:11:36.465Z,2.97
2023-04-02T22:14:04.770Z,2.98
2023-04-02T22:16:33.821Z,2.98
2023-04-02T22:19:04.631Z,2.99
2023-04-02T22:21:32.520Z,3.02
2023-04-02T22:24:04.232Z,3.05
2023-04-02T22:26:32.628Z,3.06
2023-04-02T22:29:00.794Z,3.07
2023-04-02T22:31:30.532Z,3.07
2023-04-02T22:33:58.466Z,3.07
2023-04-02T22:36:28.016Z,3.06
2023-04-02T22:38:56.753Z,3.03
2023-04-02T22:41:32.143Z,3.00
2023-04-02T22:44:01.268Z,2.97
2023-04-02T22:46:29.527Z,2.95
2023-04-02T22:48:57.531Z,2.92
2023-04-02T22:51:26.121Z,2.89
2023-04-02T22:53:55.200Z,2.86
2023-04-02T22:56:26.825Z,2.83
2023-04-02T22:58:54.208Z,2.81
2023-04-02T23:01:25.080Z,2.82
2023-04-02T23:03:56.147Z,2.82
2023-04-02T23:06:24.848Z,2.86
2023-04-02T23:08:52.483Z,2.88
2023-04-02T23:11:23.065Z,2.87
2023-04-02T23:13:52.181Z,2.87
2023-04-02T23:16:20.112Z,2.86
2023-04-02T23:18:48.674Z,2.83
2023-04-02T23:21:17.401Z,2.82
2023-04-02T23:23:45.765Z,2.82
2023-04-02T23:26:19.824Z,2.81
2023-04-02T23:28:47.612Z,2.81
2023-04-02T23:31:17.370Z,2.79
2023-04-02T23:33:44.959Z,2.77
2023-04-02T23:36:18.766Z,2.76
2023-04-02T23:38:46.415Z,2.75
2023-04-02T23:41:17.884Z,2.73
2023-04-02T23:43:45.009Z,2.70
2023-04-02T23:46:12.386Z,2.68
2023-04-02T23:48:39.793Z,2.69
2023-04-02T23:51:07.125Z,2.69
2023-04-02T23:53:35.352Z,2.68
2023-04-02T23:56:02.574Z,2.69
2023-04-02T23:58:29.830Z,2.71
